Time;durP1;ratioP1;P1;durP2;ratioP2;P2;SDS_P1;SDS_P2;PMS_P1;PMS_P2;Temp;Humidity;BMP_temperature;BMP_pressure;BME280_temperature;BME280_humidity;BME280_pressure;Samples;Min_cycle;Max_cycle;Signal;HPM_P1;HPM_P2
2023/03/11 00:01:02;;;;;;;;;;;4.30;99.90;;;;;;4946253;28;20025;-71
2023/03/11 00:03:29;;;;;;;;;;;4.30;99.90;;;;;;4952796;28;19938;-71
2023/03/11 00:05:57;;;;;;;;;;;4.30;99.90;;;;;;4952636;28;19973;-71
2023/03/11 00:08:25;;;;;;;;;;;4.20;99.90;;;;;;4950423;28;20493;-71
2023/03/11 00:10:52;;;;;;;;;;;4.20;99.90;;;;;;4966038;28;20020;-72
2023/03/11 00:13:19;;;;;;;;;;;4.20;99.90;;;;;;4949050;28;19930;-72
2023/03/11 00:15:48;;;;;;;;;;;4.20;99.90;;;;;;4948564;28;19973;-72
2023/03/11 00:18:15;;;;;;;;;;;4.10;99.90;;;;;;4954259;28;19933;-71
2023/03/11 00:20:43;;;;;;;;;;;4.10;99.90;;;;;;4945798;28;19934;-71
2023/03/11 00:23:11;;;;;;;;;;;4.10;99.90;;;;;;4950464;28;19958;-72
2023/03/11 00:25:38;;;;;;;;;;;4.10;99.90;;;;;;4970243;28;19985;-71
2023/03/11 00:28:06;;;;;;;;;;;4.10;99.90;;;;;;4951499;28;20521;-71
2023/03/11 00:30:33;;;;;;;;;;;4.10;99.90;;;;;;4948380;28;19930;-71
2023/03/11 00:33:01;;;;;;;;;;;4.00;99.90;;;;;;4966102;28;19926;-71
2023/03/11 00:35:29;;;;;;;;;;;4.00;99.90;;;;;;4954603;28;19930;-71
2023/03/11 00:37:57;;;;;;;;;;;4.00;99.90;;;;;;4947444;28;19927;-71
2023/03/11 00:40:24;;;;;;;;;;;4.00;99.90;;;;;;4948046;28;20409;-71
2023/03/11 00:42:51;;;;;;;;;;;4.00;99.90;;;;;;4952276;28;19930;-71
2023/03/11 00:45:18;;;;;;;;;;;4.00;99.90;;;;;;4950500;28;20005;-71
2023/03/11 00:47:45;;;;;;;;;;;3.90;99.90;;;;;;4958688;28;19934;-71
2023/03/11 00:50:16;;;;;;;;;;;3.90;99.90;;;;;;4969313;28;19938;-71
2023/03/11 00:52:44;;;;;;;;;;;3.90;99.90;;;;;;4965855;28;19930;-71
2023/03/11 00:55:13;;;;;;;;;;;3.90;99.90;;;;;;4947656;28;19941;-71
2023/03/11 00:57:40;;;;;;;;;;;3.90;99.90;;;;;;4950469;28;20017;-69
2023/03/11 01:00:10;;;;;;;;;;;3.90;99.90;;;;;;4949596;28;20017;-72
2023/03/11 01:02:37;;;;;;;;;;;3.80;99.90;;;;;;4952020;28;19985;-71
2023/03/11 01:05:05;;;;;;;;;;;3.80;99.90;;;;;;4946501;28;19933;-72
2023/03/11 01:07:33;;;;;;;;;;;3.80;99.90;;;;;;4966023;28;19930;-71
2023/03/11 01:10:01;;;;;;;;;;;3.80;99.90;;;;;;4948987;28;19930;-71
2023/03/11 01:12:29;;;;;;;;;;;3.80;99.90;;;;;;4941955;28;20691;-71
2023/03/11 01:14:55;;;;;;;;;;;3.80;99.90;;;;;;4964618;28;20296;-71
2023/03/11 01:17:22;;;;;;;;;;;3.70;99.90;;;;;;4947549;28;19930;-72
2023/03/11 01:19:49;;;;;;;;;;;3.70;99.90;;;;;;4965432;28;19933;-71
2023/03/11 01:22:16;;;;;;;;;;;3.70;99.90;;;;;;4944937;28;20025;-71
2023/03/11 01:24:44;;;;;;;;;;;3.70;99.90;;;;;;4949159;28;19973;-71
2023/03/11 01:27:11;;;;;;;;;;;3.70;99.90;;;;;;4950054;28;19926;-71
2023/03/11 01:29:38;;;;;;;;;;;3.60;99.90;;;;;;4946484;28;19938;-71
2023/03/11 01:32:05;;;;;;;;;;;3.60;99.90;;;;;;4946375;28;19932;-71
2023/03/11 01:34:34;;;;;;;;;;;3.60;99.90;;;;;;4963506;28;19934;-71
2023/03/11 01:37:01;;;;;;;;;;;3.60;99.90;;;;;;4950473;28;19931;-71
2023/03/11 01:39:28;;;;;;;;;;;3.60;99.90;;;;;;4962756;28;20024;-71
2023/03/11 01:41:56;;;;;;;;;;;3.60;99.90;;;;;;4951053;28;19936;-71
2023/03/11 01:44:23;;;;;;;;;;;3.60;99.90;;;;;;4965007;28;19934;-73
2023/03/11 01:47:09;;;;;;;;;;;3.60;99.90;;;;;;4972762;28;19980;-71
2023/03/11 01:49:40;;;;;;;;;;;3.50;99.90;;;;;;4962660;28;19978;-71
2023/03/11 01:52:07;;;;;;;;;;;3.50;99.90;;;;;;4950882;28;19926;-71
2023/03/11 01:54:41;;;;;;;;;;;3.50;99.90;;;;;;4964010;28;20798;-70
2023/03/11 01:57:12;;;;;;;;;;;3.50;99.90;;;;;;4967353;28;20005;-71
2023/03/11 01:59:41;;;;;;;;;;;3.50;99.90;;;;;;4961125;28;20028;-71
2023/03/11 02:02:10;;;;;;;;;;;3.50;99.90;;;;;;4945511;28;20001;-71
2023/03/11 02:04:37;;;;;;;;;;;3.50;99.90;;;;;;4959269;28;19938;-71
2023/03/11 02:07:04;;;;;;;;;;;3.40;99.90;;;;;;4957687;28;20333;-71
2023/03/11 02:09:31;;;;;;;;;;;3.50;99.90;;;;;;4960373;28;19926;-71
2023/03/11 02:11:58;;;;;;;;;;;3.40;99.90;;;;;;4943632;28;20017;-71
2023/03/11 02:14:27;;;;;;;;;;;3.40;99.90;;;;;;4954875;28;19935;-71
2023/03/11 02:16:57;;;;;;;;;;;3.40;99.90;;;;;;4949445;28;19930;-71
2023/03/11 02:19:31;;;;;;;;;;;3.40;99.90;;;;;;4963546;28;20217;-71
2023/03/11 02:21:59;;;;;;;;;;;3.40;99.90;;;;;;4960852;28;19927;-71
2023/03/11 02:24:30;;;;;;;;;;;3.40;99.90;;;;;;4960735;28;20430;-71
2023/03/11 02:27:00;;;;;;;;;;;3.40;99.90;;;;;;4948075;28;19930;-72
2023/03/11 02:29:29;;;;;;;;;;;3.30;99.90;;;;;;4948122;28;19926;-71
2023/03/11 02:31:58;;;;;;;;;;;3.30;99.90;;;;;;4942332;28;20028;-71
2023/03/11 02:34:26;;;;;;;;;;;3.30;99.90;;;;;;4961265;28;19933;-71
2023/03/11 02:36:53;;;;;;;;;;;3.30;99.90;;;;;;4964263;28;20284;-71
2023/03/11 02:39:29;;;;;;;;;;;3.30;99.90;;;;;;4965016;28;19958;-71
2023/03/11 02:41:56;;;;;;;;;;;3.30;99.90;;;;;;4942790;28;19942;-71
2023/03/11 02:44:24;;;;;;;;;;;3.30;99.90;;;;;;4942520;28;20041;-71
2023/03/11 02:46:53;;;;;;;;;;;3.30;99.90;;;;;;4960404;28;19927;-71
2023/03/11 02:49:21;;;;;;;;;;;3.20;99.90;;;;;;4958726;28;19927;-71
2023/03/11 02:51:48;;;;;;;;;;;3.30;99.90;;;;;;4948818;28;19993;-71
2023/03/11 02:54:17;;;;;;;;;;;3.20;99.90;;;;;;4962031;28;20026;-71
2023/03/11 02:56:45;;;;;;;;;;;3.20;99.90;;;;;;4955674;28;19935;-71
2023/03/11 02:59:12;;;;;;;;;;;3.20;99.90;;;;;;4952114;28;19973;-71
2023/03/11 03:01:40;;;;;;;;;;;3.20;99.90;;;;;;4943555;28;19930;-72
2023/03/11 03:04:07;;;;;;;;;;;3.20;99.90;;;;;;4958758;28;20339;-72
2023/03/11 03:06:34;;;;;;;;;;;3.20;99.90;;;;;;4946456;28;19926;-71
2023/03/11 03:09:01;;;;;;;;;;;3.20;99.90;;;;;;4946385;28;19927;-71
2023/03/11 03:11:28;;;;;;;;;;;3.20;99.90;;;;;;4961418;28;19988;-71
2023/03/11 03:13:55;;;;;;;;;;;3.20;99.90;;;;;;4943309;28;19934;-71
2023/03/11 03:16:22;;;;;;;;;;;3.10;99.90;;;;;;4943533;28;20701;-70
2023/03/11 03:18:51;;;;;;;;;;;3.10;99.90;;;;;;4954472;28;20404;-71
2023/03/11 03:21:18;;;;;;;;;;;3.10;99.90;;;;;;4979736;28;19934;-71
2023/03/11 03:23:45;;;;;;;;;;;3.10;99.90;;;;;;4979525;28;19930;-71
2023/03/11 03:26:12;;;;;;;;;;;3.10;99.90;;;;;;4960977;28;19994;-68
2023/03/11 03:28:41;;;;;;;;;;;3.10;99.90;;;;;;4945887;28;19926;-71
2023/03/11 03:31:09;;;;;;;;;;;3.10;99.90;;;;;;4957503;28;19966;-71
2023/03/11 03:33:38;;;;;;;;;;;3.10;99.90;;;;;;4945893;28;19944;-71
2023/03/11 03:36:10;;;;;;;;;;;3.00;99.90;;;;;;4928613;28;20357;-71
2023/03/11 03:38:43;;;;;;;;;;;3.00;99.90;;;;;;4928818;28;19933;-70
2023/03/11 03:41:10;;;;;;;;;;;3.00;99.90;;;;;;4955127;28;19942;-71
2023/03/11 03:43:40;;;;;;;;;;;3.00;99.90;;;;;;4951950;28;20588;-71
2023/03/11 03:46:07;;;;;;;;;;;3.00;99.90;;;;;;4954010;28;20009;-71
2023/03/11 03:48:39;;;;;;;;;;;3.00;99.90;;;;;;4961394;28;19926;-71
2023/03/11 03:51:10;;;;;;;;;;;3.00;99.90;;;;;;4954409;28;20053;-70
2023/03/11 03:53:42;;;;;;;;;;;3.00;99.90;;;;;;4957847;28;19934;-70
2023/03/11 03:56:10;;;;;;;;;;;3.00;99.90;;;;;;4945414;28;19926;-71
2023/03/11 03:58:38;;;;;;;;;;;2.90;99.90;;;;;;4943764;28;19958;-71
2023/03/11 04:01:05;;;;;;;;;;;2.90;99.90;;;;;;4948733;28;19978;-71
2023/03/11 04:03:34;;;;;;;;;;;2.90;99.90;;;;;;4948777;28;19970;-71
2023/03/11 04:06:10;;;;;;;;;;;2.90;99.90;;;;;;4950076;28;20400;-71
2023/03/11 04:08:37;;;;;;;;;;;2.90;99.90;;;;;;4953297;28;19941;-71
2023/03/11 04:11:04;;;;;;;;;;;2.90;99.90;;;;;;4950802;28;19927;-71
2023/03/11 04:13:33;;;;;;;;;;;2.90;99.90;;;;;;4963766;28;19926;-71
2023/03/11 04:16:00;;;;;;;;;;;2.90;99.90;;;;;;4949876;28;19927;-71
2023/03/11 04:18:27;;;;;;;;;;;2.80;99.90;;;;;;4948482;28;20541;-72
2023/03/11 04:20:54;;;;;;;;;;;2.80;99.90;;;;;;4942761;28;19930;-71
2023/03/11 04:23:23;;;;;;;;;;;2.80;99.90;;;;;;4962591;28;19930;-71
2023/03/11 04:25:49;;;;;;;;;;;2.70;99.90;;;;;;4952943;28;20392;-71
2023/03/11 04:28:17;;;;;;;;;;;2.80;99.90;;;;;;4962520;28;20385;-71
2023/03/11 04:30:45;;;;;;;;;;;2.70;99.90;;;;;;4960158;28;19938;-71
2023/03/11 04:33:12;;;;;;;;;;;2.70;99.90;;;;;;4960963;28;19982;-71
2023/03/11 04:35:39;;;;;;;;;;;2.70;99.90;;;;;;4944255;28;19931;-71
2023/03/11 04:38:06;;;;;;;;;;;2.60;99.90;;;;;;4969974;28;20041;-71
2023/03/11 04:40:36;;;;;;;;;;;2.70;99.90;;;;;;4960229;28;19927;-71
2023/03/11 04:43:03;;;;;;;;;;;2.60;99.90;;;;;;4960709;28;19961;-71
2023/03/11 04:45:31;;;;;;;;;;;2.60;99.90;;;;;;4948732;28;19926;-71
2023/03/11 04:48:00;;;;;;;;;;;2.60;99.90;;;;;;4959707;28;19985;-71
2023/03/11 04:50:27;;;;;;;;;;;2.60;99.90;;;;;;4963892;28;19930;-71
2023/03/11 04:52:55;;;;;;;;;;;2.60;99.90;;;;;;4961810;28;19990;-71
2023/03/11 04:55:23;;;;;;;;;;;2.50;99.90;;;;;;4961741;28;20013;-71
2023/03/11 04:57:51;;;;;;;;;;;2.50;99.90;;;;;;4959726;28;19926;-72
2023/03/11 05:00:23;;;;;;;;;;;2.50;99.90;;;;;;4953960;28;19959;-71
2023/03/11 05:02:56;;;;;;;;;;;2.50;99.90;;;;;;4951696;28;20293;-71
2023/03/11 05:05:24;;;;;;;;;;;2.50;99.90;;;;;;4947181;28;19926;-71
2023/03/11 05:07:51;;;;;;;;;;;2.40;99.90;;;;;;4946907;28;20040;-71
2023/03/11 05:10:21;;;;;;;;;;;2.40;99.90;;;;;;4969500;28;19930;-72
2023/03/11 05:12:48;;;;;;;;;;;2.40;99.90;;;;;;4958658;28;19934;-71
2023/03/11 05:15:16;;;;;;;;;;;2.40;99.90;;;;;;4964687;28;20021;-71
2023/03/11 05:17:43;;;;;;;;;;;2.40;99.90;;;;;;4960331;28;20001;-71
2023/03/11 05:20:11;;;;;;;;;;;2.40;99.90;;;;;;4964411;28;19927;-72
2023/03/11 05:22:38;;;;;;;;;;;2.30;99.90;;;;;;4958877;28;19926;-71
2023/03/11 05:25:06;;;;;;;;;;;2.40;99.90;;;;;;4958974;28;20293;-71
2023/03/11 05:27:34;;;;;;;;;;;2.30;99.90;;;;;;4961903;28;19981;-71
2023/03/11 05:30:01;;;;;;;;;;;2.30;99.90;;;;;;4962182;28;20414;-71
2023/03/11 05:32:32;;;;;;;;;;;2.20;99.90;;;;;;4958931;28;19927;-71
2023/03/11 05:35:00;;;;;;;;;;;2.30;99.90;;;;;;4947866;28;19973;-71
2023/03/11 05:37:27;;;;;;;;;;;2.20;99.90;;;;;;4961783;28;20025;-71
2023/03/11 05:39:56;;;;;;;;;;;2.30;99.90;;;;;;4943894;28;19982;-71
2023/03/11 05:42:23;;;;;;;;;;;2.30;99.90;;;;;;4955938;28;19933;-71
2023/03/11 05:44:53;;;;;;;;;;;2.30;99.90;;;;;;4964971;28;19933;-74
2023/03/11 05:47:23;;;;;;;;;;;2.30;99.90;;;;;;4945086;28;19982;-71
2023/03/11 05:49:51;;;;;;;;;;;2.30;99.90;;;;;;4958631;28;20534;-71
2023/03/11 05:52:19;;;;;;;;;;;2.30;99.90;;;;;;4948602;28;19934;-71
2023/03/11 05:54:48;;;;;;;;;;;2.20;99.90;;;;;;4943737;28;19938;-71
2023/03/11 05:57:16;;;;;;;;;;;2.20;99.90;;;;;;4964042;28;19930;-72
2023/03/11 05:59:45;;;;;;;;;;;2.20;99.90;;;;;;4959186;28;20305;-71
2023/03/11 06:02:12;;;;;;;;;;;2.20;99.90;;;;;;4960030;28;19933;-71
2023/03/11 06:04:40;;;;;;;;;;;2.20;99.90;;;;;;4965000;28;19931;-71
2023/03/11 06:07:11;;;;;;;;;;;2.20;99.90;;;;;;4964473;28;19962;-71
2023/03/11 06:09:39;;;;;;;;;;;2.30;99.90;;;;;;4943815;28;19936;-71
2023/03/11 06:12:10;;;;;;;;;;;2.20;99.90;;;;;;4961887;28;19926;-71
2023/03/11 06:14:49;;;;;;;;;;;2.20;99.90;;;;;;4951856;28;20017;-71
2023/03/11 06:17:16;;;;;;;;;;;2.20;99.90;;;;;;4961973;28;19938;-71
2023/03/11 06:19:43;;;;;;;;;;;2.10;99.90;;;;;;4947612;28;19935;-71
2023/03/11 06:22:11;;;;;;;;;;;2.20;99.90;;;;;;4962171;28;19930;-71
2023/03/11 06:24:39;;;;;;;;;;;2.20;99.90;;;;;;4948779;28;19935;-71
2023/03/11 06:27:08;;;;;;;;;;;2.10;99.90;;;;;;4948968;28;19934;-71
2023/03/11 06:29:35;;;;;;;;;;;2.20;99.90;;;;;;4962598;28;19973;-71
2023/03/11 06:32:02;;;;;;;;;;;2.10;99.90;;;;;;4963757;28;19945;-71
2023/03/11 06:34:29;;;;;;;;;;;2.10;99.90;;;;;;4957526;28;20693;-71
2023/03/11 06:36:58;;;;;;;;;;;2.10;99.90;;;;;;4958415;28;19981;-72
2023/03/11 06:39:26;;;;;;;;;;;2.10;99.90;;;;;;4956545;28;19927;-71
2023/03/11 06:41:54;;;;;;;;;;;2.10;99.90;;;;;;4943623;28;20003;-71
2023/03/11 06:44:21;;;;;;;;;;;2.10;99.90;;;;;;4961557;28;20024;-71
2023/03/11 06:46:48;;;;;;;;;;;;;;;;;;4946395;28;19927;-72
2023/03/11 06:49:16;;;;;;;;;;;2.00;99.90;;;;;;4962218;28;19966;-71
2023/03/11 06:51:43;;;;;;;;;;;1.90;99.90;;;;;;4965449;28;19994;-71
2023/03/11 06:54:11;;;;;;;;;;;2.00;99.90;;;;;;4979098;28;19998;-72
2023/03/11 06:56:39;;;;;;;;;;;2.00;99.90;;;;;;4970845;28;19934;-71
2023/03/11 06:59:08;;;;;;;;;;;1.90;99.90;;;;;;4943309;28;19926;-71
2023/03/11 07:01:36;;;;;;;;;;;1.90;99.90;;;;;;4957111;28;20018;-71
2023/03/11 07:04:05;;;;;;;;;;;1.90;99.90;;;;;;4961173;28;20313;-72
2023/03/11 07:06:33;;;;;;;;;;;1.90;99.90;;;;;;4949518;28;19926;-71
2023/03/11 07:09:14;;;;;;;;;;;1.90;99.90;;;;;;4962881;28;20328;-72
2023/03/11 07:11:45;;;;;;;;;;;1.90;99.90;;;;;;4958067;28;19927;-71
2023/03/11 07:14:16;;;;;;;;;;;1.90;99.90;;;;;;4960068;28;19931;-71
2023/03/11 07:16:47;;;;;;;;;;;1.90;99.90;;;;;;4964161;28;19927;-71
2023/03/11 07:19:22;;;;;;;;;;;1.90;99.90;;;;;;4953667;28;19927;-71
2023/03/11 07:21:49;;;;;;;;;;;1.90;99.90;;;;;;4947864;28;20321;-71
2023/03/11 07:24:16;;;;;;;;;;;1.90;99.90;;;;;;4953093;28;19931;-71
2023/03/11 07:26:45;;;;;;;;;;;1.90;99.90;;;;;;4955461;28;19930;-71
2023/03/11 07:29:11;;;;;;;;;;;1.90;99.90;;;;;;4945818;28;20028;-71
2023/03/11 07:31:38;;;;;;;;;;;1.90;99.90;;;;;;4940720;28;19930;-73
2023/03/11 07:34:09;;;;;;;;;;;1.80;99.90;;;;;;4949666;28;19934;-72
2023/03/11 07:36:37;;;;;;;;;;;1.90;99.90;;;;;;4945852;28;19940;-72
2023/03/11 07:39:05;;;;;;;;;;;1.90;99.90;;;;;;4944443;28;20405;-72
2023/03/11 07:41:32;;;;;;;;;;;1.90;99.90;;;;;;4957343;28;19927;-72
2023/03/11 07:44:01;;;;;;;;;;;1.90;99.90;;;;;;4936955;28;19937;-73
2023/03/11 07:46:29;;;;;;;;;;;1.90;99.90;;;;;;4958082;28;20005;-72
2023/03/11 07:48:56;;;;;;;;;;;1.90;99.90;;;;;;4957648;28;20025;-75
2023/03/11 07:51:24;;;;;;;;;;;1.90;99.90;;;;;;4944684;28;19966;-73
2023/03/11 07:53:52;;;;;;;;;;;1.80;99.90;;;;;;4948158;28;19985;-72
2023/03/11 07:56:19;;;;;;;;;;;1.80;99.90;;;;;;4941662;28;19934;-72
2023/03/11 07:58:46;;;;;;;;;;;1.80;99.90;;;;;;4950670;28;19942;-72
2023/03/11 08:01:16;;;;;;;;;;;1.80;99.90;;;;;;4938559;28;19934;-72
2023/03/11 08:03:43;;;;;;;;;;;1.80;99.90;;;;;;4944453;28;19931;-72
2023/03/11 08:06:13;;;;;;;;;;;1.80;99.90;;;;;;4939578;28;19926;-71
2023/03/11 08:08:40;;;;;;;;;;;1.80;99.90;;;;;;4959456;28;20025;-72
2023/03/11 08:11:07;;;;;;;;;;;1.80;99.90;;;;;;4952677;28;20021;-73
2023/03/11 08:13:35;;;;;;;;;;;1.80;99.90;;;;;;4942488;28;20032;-73
2023/03/11 08:16:03;;;;;;;;;;;1.80;99.90;;;;;;4946503;28;20389;-74
2023/03/11 08:18:31;;;;;;;;;;;1.70;99.90;;;;;;4954749;28;19926;-72
2023/03/11 08:20:58;;;;;;;;;;;1.80;99.90;;;;;;4941092;28;19933;-73
2023/03/11 08:23:25;;;;;;;;;;;1.80;99.90;;;;;;4958989;28;20408;-73
2023/03/11 08:25:52;;;;;;;;;;;1.80;99.90;;;;;;4944990;28;20368;-72
2023/03/11 08:28:19;;;;;;;;;;;1.70;99.90;;;;;;4945125;28;20012;-73
2023/03/11 08:30:46;;;;;;;;;;;1.80;99.90;;;;;;4938496;28;19926;-74
2023/03/11 08:33:12;;;;;;;;;;;1.80;99.90;;;;;;4943189;28;19973;-74
2023/03/11 08:35:41;;;;;;;;;;;1.80;99.90;;;;;;4947493;28;19987;-73
2023/03/11 08:38:07;;;;;;;;;;;1.70;99.90;;;;;;4939688;28;20384;-73
2023/03/11 08:40:34;;;;;;;;;;;1.80;99.90;;;;;;4936200;28;19934;-72
2023/03/11 08:43:01;;;;;;;;;;;1.70;99.90;;;;;;4940598;28;19930;-73
2023/03/11 08:45:28;;;;;;;;;;;1.70;99.90;;;;;;4938391;28;19957;-73
2023/03/11 08:47:55;;;;;;;;;;;1.70;99.90;;;;;;4940879;28;20563;-73
2023/03/11 08:50:21;;;;;;;;;;;1.70;99.90;;;;;;4940457;28;20297;-75
2023/03/11 08:52:50;;;;;;;;;;;1.70;99.90;;;;;;4948928;28;20392;-74
2023/03/11 08:55:23;;;;;;;;;;;1.70;99.90;;;;;;4940015;28;20404;-73
2023/03/11 08:57:50;;;;;;;;;;;1.70;99.90;;;;;;4935437;28;19977;-73
2023/03/11 09:00:18;;;;;;;;;;;1.70;99.90;;;;;;4949908;28;20022;-73
2023/03/11 09:02:44;;;;;;;;;;;1.70;99.90;;;;;;4941808;28;20017;-73
2023/03/11 09:05:11;;;;;;;;;;;1.70;99.90;;;;;;4946157;28;20357;-70
2023/03/11 09:07:38;;;;;;;;;;;1.70;99.90;;;;;;4944686;28;20450;-74
2023/03/11 09:10:07;;;;;;;;;;;1.70;99.90;;;;;;4941137;28;20341;-74
2023/03/11 09:12:33;;;;;;;;;;;1.70;99.90;;;;;;4939171;28;20404;-74
2023/03/11 09:15:00;;;;;;;;;;;1.70;99.90;;;;;;4946437;28;20017;-73
2023/03/11 09:17:27;;;;;;;;;;;1.70;99.90;;;;;;4945262;28;19981;-73
2023/03/11 09:19:54;;;;;;;;;;;1.70;99.90;;;;;;4937491;28;19934;-72
2023/03/11 09:22:21;;;;;;;;;;;1.70;99.90;;;;;;4942658;28;19933;-73
2023/03/11 09:24:50;;;;;;;;;;;1.70;99.90;;;;;;4941570;28;19935;-72
2023/03/11 09:27:18;;;;;;;;;;;1.70;99.90;;;;;;4936739;28;19938;-73
2023/03/11 09:29:45;;;;;;;;;;;1.70;99.90;;;;;;4943114;28;19957;-71
2023/03/11 09:32:12;;;;;;;;;;;1.70;99.90;;;;;;4928830;28;20377;-73
2023/03/11 09:34:39;;;;;;;;;;;1.70;99.90;;;;;;4941606;28;19933;-72
2023/03/11 09:37:06;;;;;;;;;;;1.70;99.90;;;;;;4937596;28;19961;-72
2023/03/11 09:39:33;;;;;;;;;;;1.70;99.90;;;;;;4936074;28;19974;-72
2023/03/11 09:42:02;;;;;;;;;;;1.70;99.90;;;;;;4944291;28;19981;-72
2023/03/11 09:44:34;;;;;;;;;;;1.70;99.90;;;;;;4944867;28;19942;-73
2023/03/11 09:47:10;;;;;;;;;;;1.70;99.90;;;;;;4964062;28;19927;-72
2023/03/11 09:49:43;;;;;;;;;;;1.70;99.90;;;;;;4949379;28;20302;-72
2023/03/11 09:52:10;;;;;;;;;;;1.70;99.90;;;;;;4962562;28;19974;-72
2023/03/11 09:54:38;;;;;;;;;;;1.70;99.90;;;;;;4942376;28;19973;-71
2023/03/11 09:57:09;;;;;;;;;;;1.70;99.90;;;;;;4943679;28;19927;-73
2023/03/11 09:59:38;;;;;;;;;;;1.70;99.90;;;;;;4961958;28;19934;-72
2023/03/11 10:02:05;;;;;;;;;;;1.70;99.90;;;;;;4961225;28;19958;-72
2023/03/11 10:04:34;;;;;;;;;;;1.70;99.90;;;;;;4944504;28;19933;-73
2023/03/11 10:07:02;;;;;;;;;;;1.70;99.90;;;;;;4942453;28;19969;-72
2023/03/11 10:09:33;;;;;;;;;;;1.80;99.90;;;;;;4951911;28;19934;-73
2023/03/11 10:12:07;;;;;;;;;;;1.70;99.90;;;;;;4946570;28;19934;-72
2023/03/11 10:14:42;;;;;;;;;;;1.80;99.90;;;;;;4948137;28;19936;-72
2023/03/11 10:17:15;;;;;;;;;;;1.70;99.90;;;;;;4948963;28;19949;-73
2023/03/11 10:19:44;;;;;;;;;;;1.70;99.90;;;;;;4947263;28;19973;-73
2023/03/11 10:22:14;;;;;;;;;;;1.70;99.90;;;;;;4950558;28;19934;-72
2023/03/11 10:24:46;;;;;;;;;;;1.70;99.90;;;;;;4943374;28;20022;-72
2023/03/11 10:27:15;;;;;;;;;;;1.70;99.90;;;;;;4947926;28;19957;-73
2023/03/11 10:29:47;;;;;;;;;;;1.80;99.90;;;;;;4958013;28;19934;-72
2023/03/11 10:32:17;;;;;;;;;;;1.80;99.90;;;;;;4947572;28;20009;-73
2023/03/11 10:34:47;;;;;;;;;;;1.80;99.90;;;;;;4945455;28;20350;-71
2023/03/11 10:37:16;;;;;;;;;;;1.80;99.90;;;;;;4965863;28;19934;-73
2023/03/11 10:39:46;;;;;;;;;;;1.80;99.90;;;;;;4963480;28;19953;-73
2023/03/11 10:42:14;;;;;;;;;;;1.80;99.90;;;;;;4949376;28;19927;-72
2023/03/11 10:44:42;;;;;;;;;;;1.80;99.90;;;;;;4948566;28;19966;-72
2023/03/11 10:47:15;;;;;;;;;;;1.80;99.90;;;;;;4948452;28;19941;-72
2023/03/11 10:49:42;;;;;;;;;;;1.80;99.90;;;;;;4942189;28;20388;-73
2023/03/11 10:52:09;;;;;;;;;;;1.80;99.90;;;;;;4946446;28;19926;-72
2023/03/11 10:54:38;;;;;;;;;;;1.80;99.90;;;;;;4946210;28;19926;-72
2023/03/11 10:57:06;;;;;;;;;;;1.80;99.90;;;;;;4962622;28;19926;-73
2023/03/11 10:59:36;;;;;;;;;;;1.80;99.90;;;;;;4953393;28;19973;-72
2023/03/11 11:02:04;;;;;;;;;;;1.80;99.90;;;;;;4950578;28;20184;-73
2023/03/11 11:04:34;;;;;;;;;;;1.80;99.90;;;;;;4950302;28;20774;-72
2023/03/11 11:07:20;;;;;;;;;;;1.90;99.90;;;;;;4951205;28;19926;-72
2023/03/11 11:09:47;;;;;;;;;;;1.90;99.90;;;;;;4953468;28;20152;-72
2023/03/11 11:12:15;;;;;;;;;;;1.90;99.90;;;;;;4952302;28;20316;-73
2023/03/11 11:14:42;;;;;;;;;;;1.90;99.90;;;;;;4951341;28;20304;-72
2023/03/11 11:17:16;;;;;;;;;;;1.90;99.90;;;;;;4964271;28;19935;-75
2023/03/11 11:19:45;;;;;;;;;;;1.90;99.90;;;;;;4955755;28;19934;-74
2023/03/11 11:22:15;;;;;;;;;;;1.90;99.90;;;;;;4953946;28;19927;-74
2023/03/11 11:24:43;;;;;;;;;;;1.90;99.90;;;;;;4949304;28;20421;-74
2023/03/11 11:27:15;;;;;;;;;;;1.90;99.90;;;;;;4956588;28;19927;-74
2023/03/11 11:29:42;;;;;;;;;;;1.90;99.90;;;;;;4964628;28;19974;-74
2023/03/11 11:32:17;;;;;;;;;;;2.00;99.90;;;;;;4951232;28;20491;-77
2023/03/11 11:34:53;;;;;;;;;;;1.90;99.90;;;;;;4968242;28;20013;-72
2023/03/11 11:37:21;;;;;;;;;;;2.00;99.90;;;;;;4956272;28;20676;-75
2023/03/11 11:39:51;;;;;;;;;;;1.90;99.90;;;;;;4950828;28;20337;-77
2023/03/11 11:42:18;;;;;;;;;;;2.00;99.90;;;;;;4948797;28;19962;-76
2023/03/11 11:44:46;;;;;;;;;;;2.00;99.90;;;;;;4956028;28;20308;-72
2023/03/11 11:47:16;;;;;;;;;;;1.90;99.90;;;;;;4940452;28;19931;-74
2023/03/11 11:49:48;;;;;;;;;;;2.00;99.90;;;;;;4955025;28;20033;-77
2023/03/11 11:52:18;;;;;;;;;;;2.00;99.90;;;;;;4948202;28;19926;-76
2023/03/11 11:54:51;;;;;;;;;;;2.10;99.90;;;;;;4947518;28;19926;-75
2023/03/11 11:57:19;;;;;;;;;;;2.10;99.90;;;;;;4947190;28;19962;-76
2023/03/11 11:59:47;;;;;;;;;;;2.10;99.90;;;;;;4949515;28;19941;-78
2023/03/11 12:02:23;;;;;;;;;;;2.20;99.90;;;;;;4965747;28;20383;-77
2023/03/11 12:04:55;;;;;;;;;;;2.20;99.90;;;;;;4951874;28;19954;-75
2023/03/11 12:07:29;;;;;;;;;;;2.30;99.90;;;;;;4955953;28;19939;-73
2023/03/11 12:10:00;;;;;;;;;;;2.30;99.90;;;;;;4945995;28;20357;-78
2023/03/11 12:12:29;;;;;;;;;;;2.30;99.90;;;;;;4947962;28;20300;-77
2023/03/11 12:15:01;;;;;;;;;;;2.30;99.90;;;;;;4946534;28;19934;-77
2023/03/11 12:17:30;;;;;;;;;;;2.40;99.90;;;;;;4946692;28;19926;-77
2023/03/11 12:20:01;;;;;;;;;;;2.40;99.90;;;;;;4946039;28;19926;-79
2023/03/11 12:22:40;;;;;;;;;;;2.40;99.90;;;;;;4944241;28;19969;-76
2023/03/11 12:25:20;;;;;;;;;;;2.40;99.90;;;;;;4950139;28;19926;-79
2023/03/11 12:27:49;;;;;;;;;;;2.40;99.90;;;;;;4943274;28;19938;-75
2023/03/11 12:30:19;;;;;;;;;;;2.40;99.90;;;;;;4947063;28;19926;-78
2023/03/11 12:32:49;;;;;;;;;;;2.40;99.90;;;;;;4940796;28;19926;-77
2023/03/11 12:35:20;;;;;;;;;;;2.40;99.90;;;;;;4947150;28;20392;-76
2023/03/11 12:37:56;;;;;;;;;;;2.40;99.90;;;;;;4962539;28;19930;-79
2023/03/11 12:40:41;;;;;;;;;;;2.50;99.90;;;;;;4948256;28;19970;-78
2023/03/11 12:43:23;;;;;;;;;;;2.50;99.90;;;;;;4947314;28;19965;-79
2023/03/11 12:45:50;;;;;;;;;;;2.50;99.90;;;;;;4945383;28;19930;-75
2023/03/11 12:48:44;;;;;;;;;;;2.50;99.90;;;;;;4945368;28;19931;-74
2023/03/11 12:51:26;;;;;;;;;;;2.50;99.90;;;;;;4921844;28;19937;-74
2023/03/11 12:53:55;;;;;;;;;;;2.50;99.90;;;;;;4944373;28;19930;-78
2023/03/11 12:56:28;;;;;;;;;;;2.50;99.90;;;;;;4961055;28;20419;-77
2023/03/11 12:59:09;;;;;;;;;;;2.50;99.90;;;;;;4946633;28;19961;-77
2023/03/11 13:01:44;;;;;;;;;;;2.50;99.90;;;;;;4961702;28;19934;-75
2023/03/11 13:04:32;;;;;;;;;;;2.50;99.90;;;;;;4938354;28;19938;-77
2023/03/11 13:07:12;;;;;;;;;;;2.60;99.90;;;;;;4920430;28;20412;-74
2023/03/11 13:09:40;;;;;;;;;;;2.60;99.90;;;;;;4941197;28;19930;-75
2023/03/11 13:12:22;;;;;;;;;;;2.60;99.90;;;;;;4950830;28;19927;-76
2023/03/11 13:14:49;;;;;;;;;;;2.60;99.90;;;;;;4944833;28;19935;-74
2023/03/11 13:17:24;;;;;;;;;;;2.60;99.90;;;;;;4945168;28;20065;-75
2023/03/11 13:19:52;;;;;;;;;;;2.60;99.90;;;;;;4942503;28;20037;-75
2023/03/11 13:22:38;;;;;;;;;;;2.60;99.90;;;;;;4931797;28;20317;-74
2023/03/11 13:25:25;;;;;;;;;;;2.70;99.90;;;;;;4947736;28;20347;-75
2023/03/11 13:27:57;;;;;;;;;;;2.70;99.90;;;;;;4935684;28;19933;-74
2023/03/11 13:30:28;;;;;;;;;;;2.70;99.90;;;;;;4945977;28;19926;-73
2023/03/11 13:33:13;;;;;;;;;;;2.70;99.90;;;;;;4932336;28;20001;-77
2023/03/11 13:35:44;;;;;;;;;;;2.70;99.90;;;;;;4947276;28;20009;-74
2023/03/11 13:38:17;;;;;;;;;;;2.80;99.90;;;;;;4938549;28;20517;-74
2023/03/11 13:40:46;;;;;;;;;;;2.80;99.90;;;;;;4953827;28;19935;-74
2023/03/11 13:43:16;;;;;;;;;;;2.80;99.90;;;;;;4936087;28;20308;-74
2023/03/11 13:45:47;;;;;;;;;;;2.90;99.90;;;;;;4945858;28;19934;-74
2023/03/11 13:48:16;;;;;;;;;;;2.90;99.90;;;;;;4943792;28;19931;-74
2023/03/11 13:50:46;;;;;;;;;;;2.90;99.90;;;;;;4942782;28;19932;-77
2023/03/11 13:53:17;;;;;;;;;;;2.90;99.90;;;;;;4960166;28;19941;-75
2023/03/11 13:55:46;;;;;;;;;;;2.90;99.90;;;;;;4960673;28;19930;-74
2023/03/11 13:58:16;;;;;;;;;;;3.00;99.90;;;;;;4943425;28;19938;-74
2023/03/11 14:00:48;;;;;;;;;;;3.00;99.90;;;;;;4933456;28;19985;-76
2023/03/11 14:03:17;;;;;;;;;;;3.00;99.90;;;;;;4945847;28;20304;-74
2023/03/11 14:05:45;;;;;;;;;;;3.00;99.90;;;;;;4946574;28;19926;-74
2023/03/11 14:08:13;;;;;;;;;;;3.10;99.90;;;;;;4961488;28;20311;-74
2023/03/11 14:10:40;;;;;;;;;;;3.10;99.90;;;;;;4946638;28;20086;-74
2023/03/11 14:13:15;;;;;;;;;;;3.10;99.90;;;;;;4943763;28;19934;-74
2023/03/11 14:15:51;;;;;;;;;;;3.10;99.90;;;;;;4963245;28;19973;-75
2023/03/11 14:18:26;;;;;;;;;;;3.10;99.90;;;;;;4946009;28;19930;-75
2023/03/11 14:20:52;;;;;;;;;;;3.20;99.90;;;;;;4950650;28;19961;-76
2023/03/11 14:23:20;;;;;;;;;;;3.20;99.90;;;;;;4972680;28;19930;-76
2023/03/11 14:25:47;;;;;;;;;;;3.20;99.90;;;;;;4961598;28;19926;-74
2023/03/11 14:28:18;;;;;;;;;;;3.30;99.90;;;;;;4956940;28;20020;-74
2023/03/11 14:30:55;;;;;;;;;;;3.30;99.90;;;;;;4947557;28;19957;-74
2023/03/11 14:33:22;;;;;;;;;;;3.30;99.90;;;;;;4947764;28;19971;-74
2023/03/11 14:35:51;;;;;;;;;;;3.30;99.90;;;;;;4941487;28;19935;-77
2023/03/11 14:38:21;;;;;;;;;;;3.30;99.90;;;;;;4944940;28;20396;-76
2023/03/11 14:40:50;;;;;;;;;;;3.40;99.90;;;;;;4946945;28;20188;-75
2023/03/11 14:43:19;;;;;;;;;;;3.50;99.90;;;;;;4956607;28;19933;-75